SEGU/GYE METAR and TAF weather

Enter ICAO airport designator
Station Type Date Time Source
SEGU METAR 2019/05/20 10:00 UTC NOAA

SEGU 201000Z 25005KT 220V280 9999 FEW010 SCT023 BKN100 26/23 Q1010 NOSIG RMK A2983


Station Type Date Time Source
SEGU Decoded METAR 2019/05/20 10:00 UTC NOAA

Guayaquil / Simon Bolivar, Ecuador (SEGU) 02-09S 079-53W 9M
May 20, 2019 - 06:00 AM EDT / 2019.05.20 1000 UTC
Wind: from the WSW (250 degrees) at 6 MPH (5 KT) (direction variable):0
Visibility: greater than 7 mile(s):0
Sky conditions: mostly cloudy
Temperature: 78 F (26 C)
Dew Point: 73 F (23 C)
Relative Humidity: 83%
Pressure (altimeter): 29.83 in. Hg (1010 hPa)
ob: SEGU 201000Z 25005KT 220V280 9999 FEW010 SCT023 BKN100 26/23 Q1010 NOSIG RMK A2983
cycle: 10

Station Type Date Time Source
SEGU TAF 2019/05/20 12:57 UTC NOAA

TAF TAF SEGU 200930Z 2012/2112 21005KT 9999 SCT023 BKN100
BECMG 2015/2016 15005KT
TEMPO 2023/2024 8000 RA BKN020
FM210100 22008KT 9999 SCT020 SCT090
FM210600 25006KT 9999 BKN020 BKN090
TEMPO 2106/2108 8000 RA TX31/2020Z TN24/2110Z

Example: see airport list